Time,TemperatureF,DewpointF,PressureIn,WindDirection,WindDirectionDegrees,WindSpeedMPH,WindSpeedGustMPH,Humidity,HourlyPrecipIn,Conditions,Clouds,dailyrainin,SoftwareType,DateUTC
2013-01-16 00:00:00,32.4,16.3,30.42,WSW,248,3.0,-999.0,51,0.00,,,0.00,Wunderground v.1.15,2013-01-16 07:00:00,
2013-01-16 00:05:00,32.4,16.3,30.42,WSW,248,3.0,-999.0,51,0.00,,,0.00,Wunderground v.1.15,2013-01-16 07:05:00,
2013-01-16 00:10:00,32.6,16.0,30.41,WSW,248,4.0,-999.0,50,0.00,,,0.00,Wunderground v.1.15,2013-01-16 07:10:00,
2013-01-16 00:15:00,33.1,16.0,30.41,SW,225,4.0,-999.0,49,0.00,,,0.00,Wunderground v.1.15,2013-01-16 07:15:00,
2013-01-16 00:20:00,33.5,16.8,30.41,SW,225,4.0,-999.0,50,0.00,,,0.00,Wunderground v.1.15,2013-01-16 07:20:00,
2013-01-16 00:25:00,33.3,17.1,30.41,SW,225,3.0,-999.0,51,0.00,,,0.00,Wunderground v.1.15,2013-01-16 07:25:00,
2013-01-16 00:30:00,33.1,16.9,30.41,SSW,203,5.0,-999.0,51,0.00,,,0.00,Wunderground v.1.15,2013-01-16 07:30:00,
2013-01-16 00:35:00,33.2,16.5,30.41,SW,225,5.0,-999.0,50,0.00,,,0.00,Wunderground v.1.15,2013-01-16 07:35:00,
2013-01-16 00:40:00,33.6,16.5,30.41,WSW,248,5.0,-999.0,49,0.00,,,0.00,Wunderground v.1.15,2013-01-16 07:40:00,
2013-01-16 00:45:00,33.8,16.2,30.41,WSW,248,5.0,-999.0,48,0.00,,,0.00,Wunderground v.1.15,2013-01-16 07:45:00,
2013-01-16 00:50:00,34.1,16.9,30.41,WSW,248,3.0,-999.0,49,0.00,,,0.00,Wunderground v.1.15,2013-01-16 07:50:00,
2013-01-16 00:55:00,33.9,17.2,30.41,SW,225,3.0,-999.0,50,0.00,,,0.00,Wunderground v.1.15,2013-01-16 07:55:00,
2013-01-16 01:00:00,33.7,17.5,30.41,SW,225,2.0,-999.0,51,0.00,,,0.00,Wunderground v.1.15,2013-01-16 08:00:00,
2013-01-16 01:05:00,33.4,18.1,30.41,SSE,158,2.0,-999.0,53,0.00,,,0.00,Wunderground v.1.15,2013-01-16 08:05:00,
2013-01-16 01:10:00,32.7,17.9,30.41,South,180,2.0,-999.0,54,0.00,,,0.00,Wunderground v.1.15,2013-01-16 08:10:00,
2013-01-16 01:15:00,32.6,17.3,30.41,WSW,248,3.0,-999.0,53,0.00,,,0.00,Wunderground v.1.15,2013-01-16 08:15:00,
2013-01-16 01:20:00,32.8,18.0,30.41,SSE,158,3.0,-999.0,54,0.00,,,0.00,Wunderground v.1.15,2013-01-16 08:20:00,
2013-01-16 01:25:00,32.6,18.2,30.41,SSE,158,3.0,-999.0,55,0.00,,,0.00,Wunderground v.1.15,2013-01-16 08:25:00,
2013-01-16 01:30:00,32.3,17.1,30.41,WSW,248,3.0,-999.0,53,0.00,,,0.00,Wunderground v.1.15,2013-01-16 08:30:00,
2013-01-16 01:35:00,31.9,17.1,30.40,WSW,248,3.0,-999.0,54,0.00,,,0.00,Wunderground v.1.15,2013-01-16 08:35:00,
2013-01-16 01:40:00,31.7,16.5,30.40,West,270,5.0,-999.0,53,0.00,,,0.00,Wunderground v.1.15,2013-01-16 08:40:00,
2013-01-16 01:45:00,31.7,16.5,30.40,West,270,4.0,-999.0,53,0.00,,,0.00,Wunderground v.1.15,2013-01-16 08:45:00,
2013-01-16 01:50:00,31.4,16.2,30.40,WSW,248,3.0,-999.0,53,0.00,,,0.00,Wunderground v.1.15,2013-01-16 08:50:00,
2013-01-16 01:55:00,31.3,16.1,30.40,WSW,248,3.0,-999.0,53,0.00,,,0.00,Wunderground v.1.15,2013-01-16 08:55:00,
2013-01-16 02:00:00,30.9,15.8,30.41,West,270,3.0,-999.0,53,0.00,,,0.00,Wunderground v.1.15,2013-01-16 09:00:00,
2013-01-16 02:05:00,30.9,16.6,30.41,SSE,158,2.0,-999.0,55,0.00,,,0.00,Wunderground v.1.15,2013-01-16 09:05:00,
2013-01-16 02:10:00,30.5,16.7,30.41,SSW,203,2.0,-999.0,56,0.00,,,0.00,Wunderground v.1.15,2013-01-16 09:10:00,
2013-01-16 02:15:00,30.3,16.0,30.41,SSW,203,2.0,-999.0,55,0.00,,,0.00,Wunderground v.1.15,2013-01-16 09:15:00,
2013-01-16 02:20:00,30.2,17.2,30.41,SSW,203,4.0,-999.0,58,0.00,,,0.00,Wunderground v.1.15,2013-01-16 09:20:00,
2013-01-16 02:25:00,30.2,17.2,30.40,SSW,203,5.0,-999.0,58,0.00,,,0.00,Wunderground v.1.15,2013-01-16 09:25:00,
2013-01-16 02:30:00,30.1,16.3,30.40,WSW,248,4.0,-999.0,56,0.00,,,0.00,Wunderground v.1.15,2013-01-16 09:30:00,
2013-01-16 02:35:00,30.5,16.2,30.40,WSW,248,3.0,-999.0,55,0.00,,,0.00,Wunderground v.1.15,2013-01-16 09:35:00,
2013-01-16 02:40:00,31.1,18.4,30.40,SW,225,5.0,-999.0,59,0.00,,,0.00,Wunderground v.1.15,2013-01-16 09:40:00,
2013-01-16 02:45:00,31.1,18.4,30.39,SSW,203,7.0,-999.0,59,0.00,,,0.00,Wunderground v.1.15,2013-01-16 09:45:00,
2013-01-16 02:50:00,31.2,17.7,30.39,SW,225,9.0,-999.0,57,0.00,,,0.00,Wunderground v.1.15,2013-01-16 09:50:00,
2013-01-16 02:55:00,32.0,18.5,30.39,SW,225,8.0,-999.0,57,0.00,,,0.00,Wunderground v.1.15,2013-01-16 09:55:00,
2013-01-16 03:00:00,32.0,18.1,30.39,SW,225,3.0,-999.0,56,0.00,,,0.00,Wunderground v.1.15,2013-01-16 10:00:00,
2013-01-16 03:05:00,32.0,17.6,30.39,WSW,248,3.0,-999.0,55,0.00,,,0.00,Wunderground v.1.15,2013-01-16 10:05:00,
2013-01-16 03:10:00,32.3,17.5,30.39,ENE,68,2.0,-999.0,54,0.00,,,0.00,Wunderground v.1.15,2013-01-16 10:10:00,
2013-01-16 03:15:00,32.0,17.2,30.39,WNW,293,0.0,-999.0,54,0.00,,,0.00,Wunderground v.1.15,2013-01-16 10:15:00,
2013-01-16 03:20:00,31.4,17.1,30.39,SSE,158,1.0,-999.0,55,0.00,,,0.00,Wunderground v.1.15,2013-01-16 10:20:00,
2013-01-16 03:25:00,31.0,16.7,30.39,SSW,203,1.0,-999.0,55,0.00,,,0.00,Wunderground v.1.15,2013-01-16 10:25:00,
2013-01-16 03:30:00,30.9,16.6,30.38,WSW,248,4.0,-999.0,55,0.00,,,0.00,Wunderground v.1.15,2013-01-16 10:30:00,
2013-01-16 03:35:00,30.1,16.7,30.39,WSW,248,4.0,-999.0,57,0.00,,,0.00,Wunderground v.1.15,2013-01-16 10:35:00,
2013-01-16 03:40:00,29.5,16.5,30.39,SW,225,2.0,-999.0,58,0.00,,,0.00,Wunderground v.1.15,2013-01-16 10:40:00,
2013-01-16 03:45:00,29.6,16.2,30.39,WSW,248,3.0,-999.0,57,0.00,,,0.00,Wunderground v.1.15,2013-01-16 10:45:00,
2013-01-16 03:50:00,29.2,16.2,30.38,WSW,248,4.0,-999.0,58,0.00,,,0.00,Wunderground v.1.15,2013-01-16 10:50:00,
2013-01-16 03:55:00,29.0,16.4,30.39,West,270,4.0,-999.0,59,0.00,,,0.00,Wunderground v.1.15,2013-01-16 10:55:00,
2013-01-16 04:00:00,29.0,16.4,30.38,SSE,158,1.0,-999.0,59,0.00,,,0.00,Wunderground v.1.15,2013-01-16 11:00:00,
2013-01-16 04:05:00,29.0,16.1,30.38,WSW,248,4.0,-999.0,58,0.00,,,0.00,Wunderground v.1.15,2013-01-16 11:05:00,
2013-01-16 04:10:00,28.7,16.6,30.38,WSW,248,4.0,-999.0,60,0.00,,,0.00,Wunderground v.1.15,2013-01-16 11:10:00,
2013-01-16 04:15:00,28.6,16.5,30.38,WSW,248,4.0,-999.0,60,0.00,,,0.00,Wunderground v.1.15,2013-01-16 11:15:00,
2013-01-16 04:20:00,28.7,16.6,30.37,WSW,248,5.0,-999.0,60,0.00,,,0.00,Wunderground v.1.15,2013-01-16 11:20:00,
2013-01-16 04:25:00,28.7,16.6,30.37,WSW,248,5.0,-999.0,60,0.00,,,0.00,Wunderground v.1.15,2013-01-16 11:25:00,
2013-01-16 04:30:00,28.8,16.6,30.37,WSW,248,4.0,-999.0,60,0.00,,,0.00,Wunderground v.1.15,2013-01-16 11:30:00,
2013-01-16 04:35:00,29.3,16.7,30.37,SW,225,2.0,-999.0,59,0.00,,,0.00,Wunderground v.1.15,2013-01-16 11:35:00,
2013-01-16 04:40:00,29.3,17.1,30.37,SW,225,3.0,-999.0,60,0.00,,,0.00,Wunderground v.1.15,2013-01-16 11:40:00,
2013-01-16 04:45:00,29.1,16.5,30.37,WSW,248,4.0,-999.0,59,0.00,,,0.00,Wunderground v.1.15,2013-01-16 11:45:00,
2013-01-16 04:50:00,28.6,16.5,30.37,WSW,248,4.0,-999.0,60,0.00,,,0.00,Wunderground v.1.15,2013-01-16 11:50:00,
2013-01-16 04:55:00,28.0,16.3,30.36,SW,225,4.0,-999.0,61,0.00,,,0.00,Wunderground v.1.15,2013-01-16 11:55:00,
2013-01-16 05:00:00,28.0,16.3,30.37,WSW,248,3.0,-999.0,61,0.00,,,0.00,Wunderground v.1.15,2013-01-16 12:00:00,
2013-01-16 05:05:00,28.1,16.7,30.37,SSW,203,2.0,-999.0,62,0.00,,,0.00,Wunderground v.1.15,2013-01-16 12:05:00,
2013-01-16 05:10:00,28.6,16.8,30.36,SW,225,3.0,-999.0,61,0.00,,,0.00,Wunderground v.1.15,2013-01-16 12:10:00,
2013-01-16 05:15:00,28.8,17.0,30.36,SSW,203,3.0,-999.0,61,0.00,,,0.00,Wunderground v.1.15,2013-01-16 12:15:00,
2013-01-16 05:20:00,29.0,17.2,30.38,South,180,3.0,-999.0,61,0.00,,,0.00,Wunderground v.1.15,2013-01-16 12:20:00,
2013-01-16 05:25:00,28.8,17.0,30.38,SSE,158,1.0,-999.0,61,0.00,,,0.00,Wunderground v.1.15,2013-01-16 12:25:00,
2013-01-16 05:30:00,28.4,16.7,30.38,WSW,248,3.0,-999.0,61,0.00,,,0.00,Wunderground v.1.15,2013-01-16 12:30:00,
2013-01-16 05:35:00,28.4,17.0,30.37,WSW,248,7.0,-999.0,62,0.00,,,0.00,Wunderground v.1.15,2013-01-16 12:35:00,
2013-01-16 05:40:00,28.6,16.8,30.37,WSW,248,8.0,-999.0,61,0.00,,,0.00,Wunderground v.1.15,2013-01-16 12:40:00,
2013-01-16 05:45:00,28.9,16.7,30.37,WSW,248,5.0,-999.0,60,0.00,,,0.00,Wunderground v.1.15,2013-01-16 12:45:00,
2013-01-16 05:50:00,29.0,16.8,30.37,WSW,248,3.0,-999.0,60,0.00,,,0.00,Wunderground v.1.15,2013-01-16 12:50:00,
2013-01-16 05:55:00,28.7,16.6,30.37,West,270,2.0,-999.0,60,0.00,,,0.00,Wunderground v.1.15,2013-01-16 12:55:00,
2013-01-16 06:00:00,29.0,16.8,30.37,WSW,248,5.0,-999.0,60,0.00,,,0.00,Wunderground v.1.15,2013-01-16 13:00:00,
2013-01-16 06:05:00,29.6,17.0,30.37,SW,225,3.0,-999.0,59,0.00,,,0.00,Wunderground v.1.15,2013-01-16 13:05:00,
2013-01-16 06:10:00,30.4,17.0,30.36,SW,225,3.0,-999.0,57,0.00,,,0.00,Wunderground v.1.15,2013-01-16 13:10:00,
2013-01-16 06:15:00,31.0,17.1,30.36,WSW,248,3.0,-999.0,56,0.00,,,0.00,Wunderground v.1.15,2013-01-16 13:15:00,
2013-01-16 06:20:00,32.0,17.2,30.36,SW,225,4.0,-999.0,54,0.00,,,0.00,Wunderground v.1.15,2013-01-16 13:20:00,
2013-01-16 06:25:00,32.5,17.2,30.36,WSW,248,2.0,-999.0,53,0.00,,,0.00,Wunderground v.1.15,2013-01-16 13:25:00,
2013-01-16 06:30:00,31.3,17.4,30.36,NNW,338,2.0,-999.0,56,0.00,,,0.00,Wunderground v.1.15,2013-01-16 13:30:00,
2013-01-16 06:35:00,29.6,17.4,30.36,WSW,248,2.0,-999.0,60,0.00,,,0.00,Wunderground v.1.15,2013-01-16 13:35:00,
2013-01-16 06:40:00,29.4,16.8,30.36,WSW,248,4.0,-999.0,59,0.00,,,0.00,Wunderground v.1.15,2013-01-16 13:40:00,
2013-01-16 06:45:00,29.6,16.6,30.36,WSW,248,5.0,-999.0,58,0.00,,,0.00,Wunderground v.1.15,2013-01-16 13:45:00,
2013-01-16 06:50:00,30.2,16.8,30.36,WSW,248,5.0,-999.0,57,0.00,,,0.00,Wunderground v.1.15,2013-01-16 13:50:00,
2013-01-16 06:55:00,30.6,16.7,30.35,WSW,248,4.0,-999.0,56,0.00,,,0.00,Wunderground v.1.15,2013-01-16 13:55:00,
2013-01-16 07:00:00,30.0,17.0,30.35,WSW,248,5.0,-999.0,58,0.00,,,0.00,Wunderground v.1.15,2013-01-16 14:00:00,
2013-01-16 07:05:00,30.1,16.7,30.35,WSW,248,3.0,-999.0,57,0.00,,,0.00,Wunderground v.1.15,2013-01-16 14:05:00,
2013-01-16 07:10:00,30.0,17.0,30.36,SW,225,2.0,-999.0,58,0.00,,,0.00,Wunderground v.1.15,2013-01-16 14:10:00,
2013-01-16 07:15:00,29.5,16.9,30.36,SW,225,3.0,-999.0,59,0.00,,,0.00,Wunderground v.1.15,2013-01-16 14:15:00,
2013-01-16 07:20:00,29.2,16.6,30.36,WSW,248,3.0,-999.0,59,0.00,,,0.00,Wunderground v.1.15,2013-01-16 14:20:00,
2013-01-16 07:25:00,28.8,16.6,30.36,WSW,248,3.0,-999.0,60,0.00,,,0.00,Wunderground v.1.15,2013-01-16 14:25:00,
2013-01-16 07:30:00,28.6,16.8,30.36,SSW,203,3.0,-999.0,61,0.00,,,0.00,Wunderground v.1.15,2013-01-16 14:30:00,
2013-01-16 07:35:00,29.1,16.5,30.36,SW,225,4.0,-999.0,59,0.00,,,0.00,Wunderground v.1.15,2013-01-16 14:35:00,
2013-01-16 07:40:00,28.9,16.4,30.36,WSW,248,2.0,-999.0,59,0.00,,,0.00,Wunderground v.1.15,2013-01-16 14:40:00,
2013-01-16 07:45:00,28.1,16.4,30.37,SW,225,3.0,-999.0,61,0.00,,,0.00,Wunderground v.1.15,2013-01-16 14:45:00,
2013-01-16 07:50:00,28.3,16.6,30.37,SW,225,4.0,-999.0,61,0.00,,,0.00,Wunderground v.1.15,2013-01-16 14:50:00,
2013-01-16 07:55:00,29.1,16.9,30.37,WSW,248,4.0,-999.0,60,0.00,,,0.00,Wunderground v.1.15,2013-01-16 14:55:00,
2013-01-16 08:00:00,30.3,17.3,30.37,WSW,248,4.0,-999.0,58,0.00,,,0.00,Wunderground v.1.15,2013-01-16 15:00:00,
2013-01-16 08:05:00,31.1,17.2,30.37,SW,225,2.0,-999.0,56,0.00,,,0.00,Wunderground v.1.15,2013-01-16 15:05:00,
2013-01-16 08:10:00,31.6,17.7,30.37,South,180,3.0,-999.0,56,0.00,,,0.00,Wunderground v.1.15,2013-01-16 15:10:00,
2013-01-16 08:15:00,32.2,17.8,30.36,WSW,248,3.0,-999.0,55,0.00,,,0.00,Wunderground v.1.15,2013-01-16 15:15:00,
2013-01-16 08:20:00,33.0,18.1,30.36,WSW,248,4.0,-999.0,54,0.00,,,0.00,Wunderground v.1.15,2013-01-16 15:20:00,
2013-01-16 08:25:00,33.4,18.5,30.37,WSW,248,4.0,-999.0,54,0.00,,,0.00,Wunderground v.1.15,2013-01-16 15:25:00,
2013-01-16 08:30:00,33.8,18.5,30.37,WSW,248,3.0,-999.0,53,0.00,,,0.00,Wunderground v.1.15,2013-01-16 15:30:00,
2013-01-16 08:35:00,34.5,18.7,30.37,SSE,158,2.0,-999.0,52,0.00,,,0.00,Wunderground v.1.15,2013-01-16 15:35:00,
2013-01-16 08:40:00,35.7,19.3,30.37,South,180,1.0,-999.0,51,0.00,,,0.00,Wunderground v.1.15,2013-01-16 15:40:00,
2013-01-16 08:45:00,36.8,18.9,30.37,WSW,248,2.0,-999.0,48,0.00,,,0.00,Wunderground v.1.15,2013-01-16 15:45:00,
2013-01-16 08:50:00,37.1,19.2,30.37,WSW,248,3.0,-999.0,48,0.00,,,0.00,Wunderground v.1.15,2013-01-16 15:50:00,
2013-01-16 08:55:00,37.4,19.0,30.37,WSW,248,3.0,-999.0,47,0.00,,,0.00,Wunderground v.1.15,2013-01-16 15:55:00,
2013-01-16 09:00:00,38.1,19.1,30.37,WSW,248,3.0,-999.0,46,0.00,,,0.00,Wunderground v.1.15,2013-01-16 16:00:00,
2013-01-16 09:05:00,38.8,20.8,30.37,East,90,1.0,-999.0,48,0.00,,,0.00,Wunderground v.1.15,2013-01-16 16:05:00,
2013-01-16 09:10:00,39.8,20.2,30.38,East,90,0.0,-999.0,45,0.00,,,0.00,Wunderground v.1.15,2013-01-16 16:10:00,
2013-01-16 09:15:00,40.9,20.1,30.37,SE,135,1.0,-999.0,43,0.00,,,0.00,Wunderground v.1.15,2013-01-16 16:15:00,
2013-01-16 09:20:00,41.8,20.4,30.37,SSW,203,1.0,-999.0,42,0.00,,,0.00,Wunderground v.1.15,2013-01-16 16:20:00,
2013-01-16 09:25:00,42.7,20.6,30.37,ESE,113,0.0,-999.0,41,0.00,,,0.00,Wunderground v.1.15,2013-01-16 16:25:00,
2013-01-16 09:30:00,43.4,20.7,30.37,East,90,1.0,-999.0,40,0.00,,,0.00,Wunderground v.1.15,2013-01-16 16:30:00,
2013-01-16 09:35:00,43.9,21.1,30.37,SSE,158,0.0,-999.0,40,0.00,,,0.00,Wunderground v.1.15,2013-01-16 16:35:00,
2013-01-16 09:40:00,44.6,19.9,30.37,ESE,113,1.0,-999.0,37,0.00,,,0.00,Wunderground v.1.15,2013-01-16 16:40:00,
2013-01-16 09:45:00,45.0,20.3,30.37,ESE,113,1.0,-999.0,37,0.00,,,0.00,Wunderground v.1.15,2013-01-16 16:45:00,
2013-01-16 09:50:00,45.6,20.1,30.37,NNE,23,2.0,-999.0,36,0.00,,,0.00,Wunderground v.1.15,2013-01-16 16:50:00,
2013-01-16 09:55:00,45.5,19.4,30.37,NE,45,1.0,-999.0,35,0.00,,,0.00,Wunderground v.1.15,2013-01-16 16:55:00,
2013-01-16 10:00:00,45.6,20.1,30.36,NE,45,0.0,-999.0,36,0.00,,,0.00,Wunderground v.1.15,2013-01-16 17:00:00,
2013-01-16 10:05:00,45.9,19.8,30.36,NE,45,0.0,-999.0,35,0.00,,,0.00,Wunderground v.1.15,2013-01-16 17:05:00,
2013-01-16 10:10:00,46.4,19.5,30.36,ESE,113,1.0,-999.0,34,0.00,,,0.00,Wunderground v.1.15,2013-01-16 17:10:00,
2013-01-16 10:15:00,47.0,20.0,30.36,East,90,1.0,-999.0,34,0.00,,,0.00,Wunderground v.1.15,2013-01-16 17:15:00,
2013-01-16 10:20:00,47.6,19.9,30.35,East,90,1.0,-999.0,33,0.00,,,0.00,Wunderground v.1.15,2013-01-16 17:20:00,
2013-01-16 10:25:00,48.0,19.5,30.35,East,90,1.0,-999.0,32,0.00,,,0.00,Wunderground v.1.15,2013-01-16 17:25:00,
2013-01-16 10:30:00,48.3,19.8,30.35,East,90,1.0,-999.0,32,0.00,,,0.00,Wunderground v.1.15,2013-01-16 17:30:00,
2013-01-16 10:35:00,48.4,19.1,30.34,East,90,1.0,-999.0,31,0.00,,,0.00,Wunderground v.1.15,2013-01-16 17:35:00,
2013-01-16 10:40:00,48.9,20.3,30.35,East,90,2.0,-999.0,32,0.00,,,0.00,Wunderground v.1.15,2013-01-16 17:40:00,
2013-01-16 10:45:00,49.1,20.5,30.35,East,90,4.0,-999.0,32,0.00,,,0.00,Wunderground v.1.15,2013-01-16 17:45:00,
2013-01-16 10:50:00,48.8,20.2,30.34,ENE,68,3.0,-999.0,32,0.00,,,0.00,Wunderground v.1.15,2013-01-16 17:50:00,
2013-01-16 10:55:00,48.8,20.9,30.34,East,90,3.0,-999.0,33,0.00,,,0.00,Wunderground v.1.15,2013-01-16 17:55:00,
2013-01-16 11:00:00,49.0,20.4,30.34,East,90,4.0,-999.0,32,0.00,,,0.00,Wunderground v.1.15,2013-01-16 18:00:00,
2013-01-16 11:05:00,49.0,20.4,30.34,ENE,68,3.0,-999.0,32,0.00,,,0.00,Wunderground v.1.15,2013-01-16 18:05:00,
2013-01-16 11:10:00,49.0,20.4,30.34,NNW,338,2.0,-999.0,32,0.00,,,0.00,Wunderground v.1.15,2013-01-16 18:10:00,
2013-01-16 11:15:00,49.3,20.6,30.33,ENE,68,2.0,-999.0,32,0.00,,,0.00,Wunderground v.1.15,2013-01-16 18:15:00,
2013-01-16 11:20:00,49.4,20.0,30.33,East,90,3.0,-999.0,31,0.00,,,0.00,Wunderground v.1.15,2013-01-16 18:20:00,
2013-01-16 11:25:00,49.8,21.1,30.33,East,90,2.0,-999.0,32,0.00,,,0.00,Wunderground v.1.15,2013-01-16 18:25:00,
2013-01-16 11:30:00,50.2,19.9,30.33,ENE,68,2.0,-999.0,30,0.00,,,0.00,Wunderground v.1.15,2013-01-16 18:30:00,
2013-01-16 11:35:00,50.2,19.9,30.33,East,90,3.0,-999.0,30,0.00,,,0.00,Wunderground v.1.15,2013-01-16 18:35:00,
2013-01-16 11:40:00,50.2,20.7,30.33,East,90,5.0,-999.0,31,0.00,,,0.00,Wunderground v.1.15,2013-01-16 18:40:00,
2013-01-16 11:45:00,50.1,20.6,30.32,East,90,4.0,-999.0,31,0.00,,,0.00,Wunderground v.1.15,2013-01-16 18:45:00,
2013-01-16 11:50:00,50.0,20.5,30.32,East,90,4.0,-999.0,31,0.00,,,0.00,Wunderground v.1.15,2013-01-16 18:50:00,
2013-01-16 11:55:00,50.0,20.5,30.32,East,90,3.0,-999.0,31,0.00,,,0.00,Wunderground v.1.15,2013-01-16 18:55:00,
2013-01-16 12:00:00,50.1,21.3,30.32,East,90,5.0,-999.0,32,0.00,,,0.00,Wunderground v.1.15,2013-01-16 19:00:00,
2013-01-16 12:05:00,50.0,21.3,30.31,ESE,113,4.0,-999.0,32,0.00,,,0.00,Wunderground v.1.15,2013-01-16 19:05:00,
2013-01-16 12:10:00,50.1,21.3,30.31,East,90,3.0,-999.0,32,0.00,,,0.00,Wunderground v.1.15,2013-01-16 19:10:00,
2013-01-16 12:15:00,50.5,20.9,30.31,East,90,3.0,-999.0,31,0.00,,,0.00,Wunderground v.1.15,2013-01-16 19:15:00,
2013-01-16 12:20:00,50.6,21.0,30.30,East,90,4.0,-999.0,31,0.00,,,0.00,Wunderground v.1.15,2013-01-16 19:20:00,
2013-01-16 12:25:00,50.7,21.1,30.30,East,90,5.0,-999.0,31,0.00,,,0.00,Wunderground v.1.15,2013-01-16 19:25:00,
2013-01-16 12:30:00,50.7,21.1,30.30,East,90,4.0,-999.0,31,0.00,,,0.00,Wunderground v.1.15,2013-01-16 19:30:00,
2013-01-16 12:35:00,50.6,21.0,30.30,East,90,2.0,-999.0,31,0.00,,,0.00,Wunderground v.1.15,2013-01-16 19:35:00,
2013-01-16 12:40:00,50.8,21.2,30.29,East,90,4.0,-999.0,31,0.00,,,0.00,Wunderground v.1.15,2013-01-16 19:40:00,
2013-01-16 12:45:00,50.9,20.5,30.29,East,90,4.0,-999.0,30,0.00,,,0.00,Wunderground v.1.15,2013-01-16 19:45:00,
2013-01-16 12:50:00,51.2,20.8,30.29,SSE,158,2.0,-999.0,30,0.00,,,0.00,Wunderground v.1.15,2013-01-16 19:50:00,
2013-01-16 12:55:00,52.0,20.7,30.29,SSW,203,3.0,-999.0,29,0.00,,,0.00,Wunderground v.1.15,2013-01-16 19:55:00,
2013-01-16 13:00:00,52.3,20.1,30.29,SSW,203,3.0,-999.0,28,0.00,,,0.00,Wunderground v.1.15,2013-01-16 20:00:00,
2013-01-16 13:05:00,52.2,20.9,30.29,SW,225,3.0,-999.0,29,0.00,,,0.00,Wunderground v.1.15,2013-01-16 20:05:00,
2013-01-16 13:10:00,52.5,20.3,30.28,SSE,158,2.0,-999.0,28,0.00,,,0.00,Wunderground v.1.15,2013-01-16 20:10:00,
2013-01-16 13:15:00,52.6,21.2,30.28,East,90,3.0,-999.0,29,0.00,,,0.00,Wunderground v.1.15,2013-01-16 20:15:00,
2013-01-16 13:20:00,52.5,20.3,30.28,ESE,113,3.0,-999.0,28,0.00,,,0.00,Wunderground v.1.15,2013-01-16 20:20:00,
2013-01-16 13:25:00,52.6,20.4,30.28,SSW,203,3.0,-999.0,28,0.00,,,0.00,Wunderground v.1.15,2013-01-16 20:25:00,
2013-01-16 13:30:00,52.9,20.6,30.28,SW,225,4.0,-999.0,28,0.00,,,0.00,Wunderground v.1.15,2013-01-16 20:30:00,
2013-01-16 13:35:00,52.7,20.5,30.28,SW,225,3.0,-999.0,28,0.00,,,0.00,Wunderground v.1.15,2013-01-16 20:35:00,
2013-01-16 13:40:00,53.0,20.7,30.28,SSW,203,2.0,-999.0,28,0.00,,,0.00,Wunderground v.1.15,2013-01-16 20:40:00,
2013-01-16 13:45:00,53.4,21.1,30.28,SSW,203,4.0,-999.0,28,0.00,,,0.00,Wunderground v.1.15,2013-01-16 20:45:00,
2013-01-16 13:50:00,53.6,20.4,30.28,SSW,203,4.0,-999.0,27,0.00,,,0.00,Wunderground v.1.15,2013-01-16 20:50:00,
2013-01-16 13:55:00,53.5,21.2,30.28,SW,225,3.0,-999.0,28,0.00,,,0.00,Wunderground v.1.15,2013-01-16 20:55:00,
2013-01-16 14:00:00,53.6,20.4,30.28,West,270,3.0,-999.0,27,0.00,,,0.00,Wunderground v.1.15,2013-01-16 21:00:00,
2013-01-16 14:05:00,53.7,21.3,30.28,SSW,203,3.0,-999.0,28,0.00,,,0.00,Wunderground v.1.15,2013-01-16 21:05:00,
2013-01-16 14:10:00,53.9,21.5,30.28,SSW,203,3.0,-999.0,28,0.00,,,0.00,Wunderground v.1.15,2013-01-16 21:10:00,
2013-01-16 14:15:00,54.4,21.1,30.28,SSE,158,3.0,-999.0,27,0.00,,,0.00,Wunderground v.1.15,2013-01-16 21:15:00,
2013-01-16 14:20:00,54.3,21.0,30.28,SSW,203,3.0,-999.0,27,0.00,,,0.00,Wunderground v.1.15,2013-01-16 21:20:00,
2013-01-16 14:25:00,54.4,21.1,30.28,NE,45,2.0,-999.0,27,0.00,,,0.00,Wunderground v.1.15,2013-01-16 21:25:00,
2013-01-16 14:30:00,54.6,20.4,30.28,SW,225,2.0,-999.0,26,0.00,,,0.00,Wunderground v.1.15,2013-01-16 21:30:00,
2013-01-16 14:35:00,54.8,21.4,30.28,SE,135,2.0,-999.0,27,0.00,,,0.00,Wunderground v.1.15,2013-01-16 21:35:00,
2013-01-16 14:40:00,54.4,22.8,30.28,ESE,113,4.0,-999.0,29,0.00,,,0.00,Wunderground v.1.15,2013-01-16 21:40:00,
2013-01-16 14:45:00,53.4,22.7,30.28,East,90,5.0,-999.0,30,0.00,,,0.00,Wunderground v.1.15,2013-01-16 21:45:00,
2013-01-16 14:50:00,53.0,22.4,30.28,SSW,203,3.0,-999.0,30,0.00,,,0.00,Wunderground v.1.15,2013-01-16 21:50:00,
2013-01-16 14:55:00,53.3,21.8,30.29,SE,135,3.0,-999.0,29,0.00,,,0.00,Wunderground v.1.15,2013-01-16 21:55:00,
2013-01-16 15:00:00,53.5,22.0,30.29,SE,135,2.0,-999.0,29,0.00,,,0.00,Wunderground v.1.15,2013-01-16 22:00:00,
2013-01-16 15:05:00,53.9,22.3,30.29,SSE,158,2.0,-999.0,29,0.00,,,0.00,Wunderground v.1.15,2013-01-16 22:05:00,
2013-01-16 15:10:00,54.1,22.5,30.29,SSW,203,3.0,-999.0,29,0.00,,,0.00,Wunderground v.1.15,2013-01-16 22:10:00,
2013-01-16 15:15:00,53.9,22.3,30.29,SSW,203,4.0,-999.0,29,0.00,,,0.00,Wunderground v.1.15,2013-01-16 22:15:00,
2013-01-16 15:20:00,53.8,22.2,30.29,SE,135,3.0,-999.0,29,0.00,,,0.00,Wunderground v.1.15,2013-01-16 22:20:00,
2013-01-16 15:25:00,53.6,22.1,30.29,SSE,158,3.0,-999.0,29,0.00,,,0.00,Wunderground v.1.15,2013-01-16 22:25:00,
2013-01-16 15:30:00,53.9,22.3,30.29,SSW,203,3.0,-999.0,29,0.00,,,0.00,Wunderground v.1.15,2013-01-16 22:30:00,
2013-01-16 15:35:00,53.8,22.2,30.29,SSW,203,3.0,-999.0,29,0.00,,,0.00,Wunderground v.1.15,2013-01-16 22:35:00,
2013-01-16 15:40:00,53.1,22.4,30.29,SE,135,2.0,-999.0,30,0.00,,,0.00,Wunderground v.1.15,2013-01-16 22:40:00,
2013-01-16 15:45:00,52.5,21.9,30.29,SSE,158,3.0,-999.0,30,0.00,,,0.00,Wunderground v.1.15,2013-01-16 22:45:00,
2013-01-16 15:50:00,52.6,22.0,30.30,South,180,3.0,-999.0,30,0.00,,,0.00,Wunderground v.1.15,2013-01-16 22:50:00,
2013-01-16 15:55:00,52.6,22.0,30.30,SSW,203,2.0,-999.0,30,0.00,,,0.00,Wunderground v.1.15,2013-01-16 22:55:00,
2013-01-16 16:00:00,52.4,21.8,30.30,SSW,203,2.0,-999.0,30,0.00,,,0.00,Wunderground v.1.15,2013-01-16 23:00:00,
2013-01-16 16:05:00,52.3,22.5,30.30,South,180,2.0,-999.0,31,0.00,,,0.00,Wunderground v.1.15,2013-01-16 23:05:00,
2013-01-16 16:10:00,52.0,23.0,30.30,SE,135,4.0,-999.0,32,0.00,,,0.00,Wunderground v.1.15,2013-01-16 23:10:00,
2013-01-16 16:15:00,51.2,23.0,30.30,SE,135,3.0,-999.0,33,0.00,,,0.00,Wunderground v.1.15,2013-01-16 23:15:00,
2013-01-16 16:20:00,50.3,23.7,30.31,SE,135,2.0,-999.0,35,0.00,,,0.00,Wunderground v.1.15,2013-01-16 23:20:00,
2013-01-16 16:25:00,49.4,23.5,30.31,ESE,113,3.0,-999.0,36,0.00,,,0.00,Wunderground v.1.15,2013-01-16 23:25:00,
2013-01-16 16:30:00,48.8,23.6,30.31,SSW,203,3.0,-999.0,37,0.00,,,0.00,Wunderground v.1.15,2013-01-16 23:30:00,
2013-01-16 16:35:00,48.0,23.6,30.31,SW,225,2.0,-999.0,38,0.00,,,0.00,Wunderground v.1.15,2013-01-16 23:35:00,
2013-01-16 16:40:00,47.1,24.0,30.31,WSW,248,3.0,-999.0,40,0.00,,,0.00,Wunderground v.1.15,2013-01-16 23:40:00,
2013-01-16 16:45:00,46.4,23.9,30.31,WSW,248,4.0,-999.0,41,0.00,,,0.00,Wunderground v.1.15,2013-01-16 23:45:00,
2013-01-16 16:50:00,45.9,24.1,30.31,WSW,248,5.0,-999.0,42,0.00,,,0.00,Wunderground v.1.15,2013-01-16 23:50:00,
2013-01-16 16:55:00,44.9,24.3,30.32,WSW,248,5.0,-999.0,44,0.00,,,0.00,Wunderground v.1.15,2013-01-16 23:55:00,
2013-01-16 17:00:00,44.3,24.8,30.32,WSW,248,5.0,-999.0,46,0.00,,,0.00,Wunderground v.1.15,2013-01-17 00:00:00,
2013-01-16 17:05:00,44.4,24.9,30.32,WSW,248,5.0,-999.0,46,0.00,,,0.00,Wunderground v.1.15,2013-01-17 00:05:00,
2013-01-16 17:10:00,44.2,25.2,30.32,WSW,248,5.0,-999.0,47,0.00,,,0.00,Wunderground v.1.15,2013-01-17 00:10:00,
2013-01-16 17:15:00,43.5,25.1,30.32,WSW,248,6.0,-999.0,48,0.00,,,0.00,Wunderground v.1.15,2013-01-17 00:15:00,
2013-01-16 17:20:00,43.0,24.6,30.32,WSW,248,5.0,-999.0,48,0.00,,,0.00,Wunderground v.1.15,2013-01-17 00:20:00,
2013-01-16 17:25:00,42.9,24.0,30.33,WSW,248,4.0,-999.0,47,0.00,,,0.00,Wunderground v.1.15,2013-01-17 00:25:00,
2013-01-16 17:30:00,42.8,23.9,30.33,SW,225,5.0,-999.0,47,0.00,,,0.00,Wunderground v.1.15,2013-01-17 00:30:00,
2013-01-16 17:35:00,42.9,23.5,30.33,WSW,248,6.0,-999.0,46,0.00,,,0.00,Wunderground v.1.15,2013-01-17 00:35:00,
2013-01-16 17:40:00,43.2,23.3,30.33,WSW,248,7.0,-999.0,45,0.00,,,0.00,Wunderground v.1.15,2013-01-17 00:40:00,
2013-01-16 17:45:00,43.3,23.4,30.33,WSW,248,5.0,-999.0,45,0.00,,,0.00,Wunderground v.1.15,2013-01-17 00:45:00,
2013-01-16 17:50:00,42.9,23.0,30.33,WSW,248,4.0,-999.0,45,0.00,,,0.00,Wunderground v.1.15,2013-01-17 00:50:00,
2013-01-16 17:55:00,43.0,23.6,30.34,SW,225,6.0,-999.0,46,0.00,,,0.00,Wunderground v.1.15,2013-01-17 00:55:00,
2013-01-16 18:00:00,42.8,23.4,30.34,SW,225,6.0,-999.0,46,0.00,,,0.00,Wunderground v.1.15,2013-01-17 01:00:00,
2013-01-16 18:05:00,42.4,24.1,30.34,SW,225,5.0,-999.0,48,0.00,,,0.00,Wunderground v.1.15,2013-01-17 01:05:00,
2013-01-16 18:10:00,42.0,23.2,30.34,WSW,248,7.0,-999.0,47,0.00,,,0.00,Wunderground v.1.15,2013-01-17 01:10:00,
2013-01-16 18:15:00,42.0,23.2,30.34,WSW,248,6.0,-999.0,47,0.00,,,0.00,Wunderground v.1.15,2013-01-17 01:15:00,
2013-01-16 18:20:00,41.6,23.8,30.34,WSW,248,5.0,-999.0,49,0.00,,,0.00,Wunderground v.1.15,2013-01-17 01:20:00,
2013-01-16 18:25:00,41.0,23.8,30.35,WSW,248,5.0,-999.0,50,0.00,,,0.00,Wunderground v.1.15,2013-01-17 01:25:00,
2013-01-16 18:30:00,40.5,24.2,30.35,WSW,248,6.0,-999.0,52,0.00,,,0.00,Wunderground v.1.15,2013-01-17 01:30:00,
2013-01-16 18:35:00,40.0,23.8,30.35,WSW,248,6.0,-999.0,52,0.00,,,0.00,Wunderground v.1.15,2013-01-17 01:35:00,
2013-01-16 18:40:00,40.0,22.8,30.35,WSW,248,6.0,-999.0,50,0.00,,,0.00,Wunderground v.1.15,2013-01-17 01:40:00,
2013-01-16 18:45:00,40.4,23.2,30.35,WSW,248,6.0,-999.0,50,0.00,,,0.00,Wunderground v.1.15,2013-01-17 01:45:00,
2013-01-16 18:50:00,40.1,23.9,30.36,WSW,248,6.0,-999.0,52,0.00,,,0.00,Wunderground v.1.15,2013-01-17 01:50:00,
2013-01-16 18:55:00,39.3,23.6,30.36,WSW,248,7.0,-999.0,53,0.00,,,0.00,Wunderground v.1.15,2013-01-17 01:55:00,
2013-01-16 19:00:00,39.5,22.8,30.36,WSW,248,6.0,-999.0,51,0.00,,,0.00,Wunderground v.1.15,2013-01-17 02:00:00,
2013-01-16 19:05:00,39.5,22.8,30.36,WSW,248,6.0,-999.0,51,0.00,,,0.00,Wunderground v.1.15,2013-01-17 02:05:00,
2013-01-16 19:10:00,39.4,23.7,30.37,WSW,248,6.0,-999.0,53,0.00,,,0.00,Wunderground v.1.15,2013-01-17 02:10:00,
2013-01-16 19:15:00,39.0,23.7,30.36,WSW,248,5.0,-999.0,54,0.00,,,0.00,Wunderground v.1.15,2013-01-17 02:15:00,
2013-01-16 19:20:00,38.9,23.7,30.37,SW,225,5.0,-999.0,54,0.00,,,0.00,Wunderground v.1.15,2013-01-17 02:20:00,
2013-01-16 19:25:00,39.2,23.9,30.37,SW,225,6.0,-999.0,54,0.00,,,0.00,Wunderground v.1.15,2013-01-17 02:25:00,
2013-01-16 19:30:00,39.1,24.3,30.37,WSW,248,6.0,-999.0,55,0.00,,,0.00,Wunderground v.1.15,2013-01-17 02:30:00,
2013-01-16 19:35:00,38.8,24.4,30.38,SW,225,6.0,-999.0,56,0.00,,,0.00,Wunderground v.1.15,2013-01-17 02:35:00,
2013-01-16 19:40:00,38.6,23.8,30.38,SW,225,5.0,-999.0,55,0.00,,,0.00,Wunderground v.1.15,2013-01-17 02:40:00,
2013-01-16 19:45:00,38.2,23.9,30.38,SSW,203,6.0,-999.0,56,0.00,,,0.00,Wunderground v.1.15,2013-01-17 02:45:00,
2013-01-16 19:50:00,37.7,23.0,30.38,SSW,203,6.0,-999.0,55,0.00,,,0.00,Wunderground v.1.15,2013-01-17 02:50:00,
2013-01-16 19:55:00,37.7,22.5,30.38,SW,225,5.0,-999.0,54,0.00,,,0.00,Wunderground v.1.15,2013-01-17 02:55:00,
2013-01-16 20:00:00,38.3,22.6,30.38,SW,225,4.0,-999.0,53,0.00,,,0.00,Wunderground v.1.15,2013-01-17 03:00:00,
2013-01-16 20:05:00,38.2,23.0,30.39,SSW,203,3.0,-999.0,54,0.00,,,0.00,Wunderground v.1.15,2013-01-17 03:05:00,
2013-01-16 20:10:00,37.9,22.7,30.38,SW,225,4.0,-999.0,54,0.00,,,0.00,Wunderground v.1.15,2013-01-17 03:10:00,
2013-01-16 20:15:00,38.0,22.4,30.38,SSW,203,4.0,-999.0,53,0.00,,,0.00,Wunderground v.1.15,2013-01-17 03:15:00,
2013-01-16 20:20:00,37.7,22.1,30.39,SSW,203,3.0,-999.0,53,0.00,,,0.00,Wunderground v.1.15,2013-01-17 03:20:00,
2013-01-16 20:25:00,37.7,22.1,30.39,SW,225,3.0,-999.0,53,0.00,,,0.00,Wunderground v.1.15,2013-01-17 03:25:00,
2013-01-16 20:30:00,37.6,22.4,30.39,SSW,203,4.0,-999.0,54,0.00,,,0.00,Wunderground v.1.15,2013-01-17 03:30:00,
2013-01-16 20:35:00,37.2,22.1,30.39,SW,225,3.0,-999.0,54,0.00,,,0.00,Wunderground v.1.15,2013-01-17 03:35:00,
2013-01-16 20:40:00,36.8,23.0,30.40,South,180,5.0,-999.0,57,0.00,,,0.00,Wunderground v.1.15,2013-01-17 03:40:00,
2013-01-16 20:45:00,36.5,22.3,30.40,SSW,203,4.0,-999.0,56,0.00,,,0.00,Wunderground v.1.15,2013-01-17 03:45:00,
2013-01-16 20:50:00,36.6,21.9,30.40,SW,225,4.0,-999.0,55,0.00,,,0.00,Wunderground v.1.15,2013-01-17 03:50:00,
2013-01-16 20:55:00,37.0,22.3,30.40,WSW,248,5.0,-999.0,55,0.00,,,0.00,Wunderground v.1.15,2013-01-17 03:55:00,
2013-01-16 21:00:00,37.3,22.2,30.40,West,270,3.0,-999.0,54,0.00,,,0.00,Wunderground v.1.15,2013-01-17 04:00:00,
2013-01-16 21:05:00,36.8,22.1,30.40,WSW,248,2.0,-999.0,55,0.00,,,0.00,Wunderground v.1.15,2013-01-17 04:05:00,
2013-01-16 21:10:00,36.7,22.0,30.40,WSW,248,3.0,-999.0,55,0.00,,,0.00,Wunderground v.1.15,2013-01-17 04:10:00,
2013-01-16 21:15:00,36.9,22.2,30.40,SW,225,4.0,-999.0,55,0.00,,,0.00,Wunderground v.1.15,2013-01-17 04:15:00,
2013-01-16 21:20:00,37.1,22.0,30.40,WSW,248,4.0,-999.0,54,0.00,,,0.00,Wunderground v.1.15,2013-01-17 04:20:00,
2013-01-16 21:25:00,37.3,22.2,30.40,WSW,248,3.0,-999.0,54,0.00,,,0.00,Wunderground v.1.15,2013-01-17 04:25:00,
2013-01-16 21:30:00,37.3,22.2,30.40,WSW,248,3.0,-999.0,54,0.00,,,0.00,Wunderground v.1.15,2013-01-17 04:30:00,
2013-01-16 21:35:00,37.2,22.1,30.40,West,270,3.0,-999.0,54,0.00,,,0.00,Wunderground v.1.15,2013-01-17 04:35:00,
2013-01-16 21:40:00,36.8,21.7,30.40,West,270,2.0,-999.0,54,0.00,,,0.00,Wunderground v.1.15,2013-01-17 04:40:00,
2013-01-16 21:45:00,36.0,22.2,30.40,WSW,248,2.0,-999.0,57,0.00,,,0.00,Wunderground v.1.15,2013-01-17 04:45:00,
2013-01-16 21:50:00,35.9,21.3,30.40,WSW,248,3.0,-999.0,55,0.00,,,0.00,Wunderground v.1.15,2013-01-17 04:50:00,
2013-01-16 21:55:00,36.3,21.2,30.41,WSW,248,4.0,-999.0,54,0.00,,,0.00,Wunderground v.1.15,2013-01-17 04:55:00,
2013-01-16 22:00:00,36.7,21.2,30.41,WSW,248,4.0,-999.0,53,0.00,,,0.00,Wunderground v.1.15,2013-01-17 05:00:00,
2013-01-16 22:05:00,36.6,21.1,30.41,WSW,248,3.0,-999.0,53,0.00,,,0.00,Wunderground v.1.15,2013-01-17 05:05:00,
2013-01-16 22:10:00,36.3,21.2,30.41,WSW,248,4.0,-999.0,54,0.00,,,0.00,Wunderground v.1.15,2013-01-17 05:10:00,
2013-01-16 22:15:00,36.3,20.8,30.41,WSW,248,3.0,-999.0,53,0.00,,,0.00,Wunderground v.1.15,2013-01-17 05:15:00,
2013-01-16 22:20:00,35.8,20.8,30.41,WSW,248,3.0,-999.0,54,0.00,,,0.00,Wunderground v.1.15,2013-01-17 05:20:00,
2013-01-16 22:25:00,35.3,20.3,30.41,WSW,248,2.0,-999.0,54,0.00,,,0.00,Wunderground v.1.15,2013-01-17 05:25:00,
2013-01-16 22:30:00,35.0,20.4,30.41,WSW,248,3.0,-999.0,55,0.00,,,0.00,Wunderground v.1.15,2013-01-17 05:30:00,
2013-01-16 22:35:00,34.9,20.4,30.41,WSW,248,3.0,-999.0,55,0.00,,,0.00,Wunderground v.1.15,2013-01-17 05:35:00,
2013-01-16 22:40:00,34.1,20.0,30.41,West,270,3.0,-999.0,56,0.00,,,0.00,Wunderground v.1.15,2013-01-17 05:40:00,
2013-01-16 22:45:00,33.3,19.7,30.41,West,270,3.0,-999.0,57,0.00,,,0.00,Wunderground v.1.15,2013-01-17 05:45:00,
2013-01-16 22:50:00,33.1,19.5,30.42,West,270,4.0,-999.0,57,0.00,,,0.00,Wunderground v.1.15,2013-01-17 05:50:00,
2013-01-16 22:55:00,32.6,19.0,30.42,WSW,248,4.0,-999.0,57,0.00,,,0.00,Wunderground v.1.15,2013-01-17 05:55:00,
2013-01-16 23:00:00,31.8,18.7,30.42,WSW,248,5.0,-999.0,58,0.00,,,0.00,Wunderground v.1.15,2013-01-17 06:00:00,
2013-01-16 23:05:00,31.0,18.3,30.42,WSW,248,6.0,-999.0,59,0.00,,,0.00,Wunderground v.1.15,2013-01-17 06:05:00,
2013-01-16 23:10:00,30.0,17.8,30.42,WSW,248,6.0,-999.0,60,0.00,,,0.00,Wunderground v.1.15,2013-01-17 06:10:00,
2013-01-16 23:15:00,29.1,16.9,30.42,WSW,248,6.0,-999.0,60,0.00,,,0.00,Wunderground v.1.15,2013-01-17 06:15:00,
2013-01-16 23:20:00,29.1,16.9,30.42,WSW,248,5.0,-999.0,60,0.00,,,0.00,Wunderground v.1.15,2013-01-17 06:20:00,
2013-01-16 23:25:00,29.2,16.6,30.42,WSW,248,6.0,-999.0,59,0.00,,,0.00,Wunderground v.1.15,2013-01-17 06:25:00,
2013-01-16 23:30:00,28.9,16.7,30.43,WSW,248,5.0,-999.0,60,0.00,,,0.00,Wunderground v.1.15,2013-01-17 06:30:00,
2013-01-16 23:35:00,28.5,16.4,30.43,WSW,248,5.0,-999.0,60,0.00,,,0.00,Wunderground v.1.15,2013-01-17 06:35:00,
2013-01-16 23:40:00,28.2,16.1,30.43,WSW,248,4.0,-999.0,60,0.00,,,0.00,Wunderground v.1.15,2013-01-17 06:40:00,
2013-01-16 23:45:00,28.2,16.1,30.43,WSW,248,4.0,-999.0,60,0.00,,,0.00,Wunderground v.1.15,2013-01-17 06:45:00,
2013-01-16 23:50:00,28.3,16.2,30.43,WSW,248,6.0,-999.0,60,0.00,,,0.00,Wunderground v.1.15,2013-01-17 06:50:00,
2013-01-16 23:55:00,28.6,16.1,30.44,West,270,5.0,-999.0,59,0.00,,,0.00,Wunderground v.1.15,2013-01-17 06:55:00,